Avila Beach, California
Current Conditions -  °F | °C
As of 6:56 PM on Monday 26 Jan 2015 (Local Time) from KSBP Reporting Station
Broken Clouds Broken Clouds  
Wind Chill: 66°   Ceiling: 9500
Heat Index: 66°   Visibility: 10mi
Dew Point: 37°   Wind: 3mph
Humidity: 34%   Direction: 120°ESE
Pressure: 30"   Gusts: NA
Location:  35.18°N, 120.73°W
Report Text: KSBP 270256Z 12003KT 10SM BKN095 BKN110 19/03 A3000 RMK AO2 SLP159 T01890028 51019
Loading
Personal Weather Stations






























Interactive Weather Map New forecast layout! Learn more

10-Day Weather Forecast

Advertisements
Track Severe Weather on mobile